AirNav   Air Wisconsin Up To $57,000 Bonus
 
 501 users online  

CA40 Central Valley Aviation Inc Airport
Selma, California, USA

GOING TO SELMA?


FAA INFORMATION EFFECTIVE 15 JULY 2021

Location

FAA Identifier: CA40
Lat/Long: 36-31-16.8210N 119-40-12.4810W
36-31.280350N 119-40.208017W
36.5213392,-119.6701336
(estimated)
Elevation: 276 ft. / 84 m (estimated)
Variation: 15E (1985)
From city: 4 miles SW of SELMA, CA
Time zone: UTC -7 (UTC -8 during Standard Time)
Zip code: 93662

Airport Operations

Airport use: Private use. Permission required prior to landing
Activation date: 01/1963
Control tower: no
ARTCC: OAKLAND CENTER
FSS: RANCHO MURIETA FLIGHT SERVICE STATION
Attendance: CONTINUOUS
Wind indicator: yes
Segmented circle: no

Airport Communications

WX ASOS at HJO (12 nm S): 134.75 (559-585-8076)
WX AWOS-3PT at O32 (14 nm NE): 120.175 (559-637-9453)
WX AWOS-3 at FCH (15 nm NW): 135.225 (559-488-1040)
WX ASOS at FAT (15 nm N): PHONE 559-255-3413
WX AWOS-3 at NLC (18 nm SW): 121.575 (559-998-2336)
WX AWOS-3PT at VIS (18 nm SE): 119.925 (559-651-2418)

Nearby radio navigation aids

VOR radial/distance  VOR name  Freq  Var
VISr300/13.0VISALIA VOR/DME109.4016E
FRAr169/35.2FRIANT VORTAC115.6017E

 
NDB name  Hdg/Dist  Freq  Var  ID
SALYER FARMS330/28.120516ECOR -.-. --- .-.

Airport Services

Airframe service: NONE
Powerplant service: NONE

Runway Information

Runway N/S

Dimensions: 2600 x 150 ft. / 792 x 46 m
Surface: treated/dirt
RUNWAY N  RUNWAY S
Traffic pattern: leftleft

Airport Ownership and Management from official FAA records

Ownership: Privately-owned
Owner: P WOMACK
6720 E CONEJO
SELMA, CA 93662
Phone 209-896-1040

Airport Operational Statistics

Aircraft based on the field: 6
Single engine airplanes: 3
Helicopters: 3
    

Additional Remarks

STRIP USED FOR COMPANY CROP DUSTING OPNS ONLY.
FOR CD CTC FRESNO APCH AT 559-487-5405.

Instrument Procedures

There are no published instrument procedures at CA40.

Some nearby airports with instrument procedures:

KHJO - Hanford Municipal Airport (12 nm S)
O32 - Reedley Municipal Airport (14 nm NE)
KFCH - Fresno Chandler Executive Airport (15 nm NW)
KFAT - Fresno Yosemite International Airport (15 nm N)
KNLC - Lemoore Naval Air Station (Reeves Field) (18 nm SW)
KVIS - Visalia Municipal Airport (18 nm SE)
 
Loc | Ops | Rwys | IFR | FBO | Links
Com | Nav | Svcs | Stats | Notes
Area around CA40 (Central Valley Aviation Inc Airport)
 
Road maps at: MapQuest Bing Google
 
Aerial photo
No photo
 
Sectional chart

 
Airport distance calculator
Flying to Central Valley Aviation Inc Airport? Find the distance to fly.

From to CA40

Sunrise and sunset
Times for 02-Aug-2021
 Local
(UTC-7)
 Zulu
(UTC)
Morning civil twilight05:3812:38
Sunrise06:0713:07
Sunset20:0303:03
Evening civil twilight20:3103:31

Current date and time
Zulu (UTC)  03-Aug-2021 06:54:16
Local (UTC-7)  02-Aug-2021 23:54:16
 
METAR
KHJO 
13nm S 
030553Z AUTO 32009KT 10SM CLR 28/14 A2996 RMK AO2 SLP146 T02780139 10389 20278 51014
KFCH 
14nm NW 
030635Z AUTO 31007KT 10SM CLR 26/11 A2998 RMK A01
KO32 
14nm NE 
030150Z AUTO 28006KT 10SM CLR 35/13 A2993 RMK AO2
KFAT 
16nm N 
030553Z 31010KT 7SM CLR 29/09 A2996 RMK AO2 SLP141 HZ FU DSNT ALQDS T02890094 10389 20289 51012
KVIS 
18nm SE 
030556Z AUTO 30008KT 10SM CLR 26/14 A2997 RMK AO2 SLP151 T02610144 10372 20261 51014
KNLC 
18nm SW 
030556Z 32008KT 10SM CLR 23/11 A2996 RMK AO2 SLP145 RH/44 T02330111 10372 20233 51011
TAF
KFAT 
16nm N 
030520Z 0306/0406 31007KT P6SM SKC
KVIS 
18nm SE 
030520Z 0306/0406 29006KT P6SM SKC
KNLC 
18nm SW 
0223/0323 01009KT 9999 FEW180 QNH2988INS TEMPO 0300/0306 33008KT FEW180 FM030600 31008KT 9999 SKC QNH2986INS T18/0314Z T41/0323Z FS30012
NOTAMs
Click for the latest NOTAMs
NOTAMs are issued by the DoD/FAA and will open in a separate window not controlled by AirNav.

 

 
 

Would you like to see your business listed on this page?

 If your business provides an interesting product or service to pilots, flight crews, aircraft, or users of the Central Valley Aviation Inc Airport, you should consider listing it here.  To start the listing process, click on the button below
 
Add a business
 

Other Pages about Central Valley Aviation Inc Airport

Update a link
 
Copyright © AirNav, LLC. All rights reserved. Privacy Policy  Contact